sensor_id;sensor_type;location;lat;lon;timestamp;pressure;altitude;pressure_sealevel;temperature;humidity
59190;BME280;50749;51.636;4.948;2022-11-21T00:02:24;100623.13;;;18.13;61.24
59190;BME280;50749;51.636;4.948;2022-11-21T00:04:50;100622.72;;;18.11;61.17
59190;BME280;50749;51.636;4.948;2022-11-21T00:07:16;100621.09;;;18.10;60.90
59190;BME280;50749;51.636;4.948;2022-11-21T00:09:41;100606.47;;;18.09;60.56
59190;BME280;50749;51.636;4.948;2022-11-21T00:12:07;100605.66;;;18.09;61.03
59190;BME280;50749;51.636;4.948;2022-11-21T00:14:33;100602.09;;;18.08;60.89
59190;BME280;50749;51.636;4.948;2022-11-21T00:16:59;100612.38;;;18.08;60.89
59190;BME280;50749;51.636;4.948;2022-11-21T00:19:25;100609.97;;;18.06;60.55
59190;BME280;50749;51.636;4.948;2022-11-21T00:21:51;100606.03;;;18.07;60.53
59190;BME280;50749;51.636;4.948;2022-11-21T00:24:16;100607.19;;;18.06;61.14
59190;BME280;50749;51.636;4.948;2022-11-21T00:26:42;100614.69;;;18.06;60.82
59190;BME280;50749;51.636;4.948;2022-11-21T00:29:08;100611.13;;;18.05;60.86
59190;BME280;50749;51.636;4.948;2022-11-21T00:31:35;100616.22;;;18.03;61.18
59190;BME280;50749;51.636;4.948;2022-11-21T00:34:01;100616.22;;;18.03;60.68
59190;BME280;50749;51.636;4.948;2022-11-21T00:36:27;100611.03;;;18.01;60.80
59190;BME280;50749;51.636;4.948;2022-11-21T00:38:52;100624.09;;;18.01;61.25
59190;BME280;50749;51.636;4.948;2022-11-21T00:41:18;100625.25;;;18.00;60.75
59190;BME280;50749;51.636;4.948;2022-11-21T00:43:44;100622.03;;;17.98;61.20
59190;BME280;50749;51.636;4.948;2022-11-21T00:46:10;100619.28;;;17.98;60.48
59190;BME280;50749;51.636;4.948;2022-11-21T00:48:36;100619.28;;;17.98;60.77
59190;BME280;50749;51.636;4.948;2022-11-21T00:51:02;100614.47;;;17.95;60.60
59190;BME280;50749;51.636;4.948;2022-11-21T00:53:28;100605.81;;;17.96;60.90
59190;BME280;50749;51.636;4.948;2022-11-21T00:55:54;100600.22;;;17.93;60.83
59190;BME280;50749;51.636;4.948;2022-11-21T00:58:20;100603.75;;;17.93;60.74
59190;BME280;50749;51.636;4.948;2022-11-21T01:00:46;100614.81;;;17.93;60.80
59190;BME280;50749;51.636;4.948;2022-11-21T01:03:11;100607.72;;;17.92;60.78
59190;BME280;50749;51.636;4.948;2022-11-21T01:05:37;100602.53;;;17.91;60.83
59190;BME280;50749;51.636;4.948;2022-11-21T01:08:03;100594.59;;;17.89;60.79
59190;BME280;50749;51.636;4.948;2022-11-21T01:10:29;100602.47;;;17.87;60.77
59190;BME280;50749;51.636;4.948;2022-11-21T01:12:55;100607.19;;;17.87;61.27
59190;BME280;50749;51.636;4.948;2022-11-21T01:15:21;100603.59;;;17.86;60.51
59190;BME280;50749;51.636;4.948;2022-11-21T01:17:46;100599.72;;;17.87;60.86
59190;BME280;50749;51.636;4.948;2022-11-21T01:20:13;100594.50;;;17.86;61.10
59190;BME280;50749;51.636;4.948;2022-11-21T01:22:38;100584.25;;;17.86;60.88
59190;BME280;50749;51.636;4.948;2022-11-21T01:25:05;100594.50;;;17.86;60.65
59190;BME280;50749;51.636;4.948;2022-11-21T01:27:30;100583.44;;;17.86;60.73
59190;BME280;50749;51.636;4.948;2022-11-21T01:29:56;100587.38;;;17.85;61.02
59190;BME280;50749;51.636;4.948;2022-11-21T01:32:22;100591.75;;;17.86;60.92
59190;BME280;50749;51.636;4.948;2022-11-21T01:34:48;100593.69;;;17.85;60.89
59190;BME280;50749;51.636;4.948;2022-11-21T01:37:13;100592.91;;;17.85;61.04
59190;BME280;50749;51.636;4.948;2022-11-21T01:39:39;100595.66;;;17.85;60.51
59190;BME280;50749;51.636;4.948;2022-11-21T01:42:05;100596.81;;;17.83;60.79
59190;BME280;50749;51.636;4.948;2022-11-21T01:44:51;100595.66;;;17.85;60.51
59190;BME280;50749;51.636;4.948;2022-11-21T01:47:17;100598.78;;;17.83;60.76
59190;BME280;50749;51.636;4.948;2022-11-21T01:49:45;100604.31;;;17.83;60.81
59190;BME280;50749;51.636;4.948;2022-11-21T01:52:19;100601.91;;;17.81;60.42
59190;BME280;50749;51.636;4.948;2022-11-21T01:54:53;100605.84;;;17.80;60.25
59190;BME280;50749;51.636;4.948;2022-11-21T01:57:36;100607.81;;;17.80;60.68
59190;BME280;50749;51.636;4.948;2022-11-21T02:00:07;100611.75;;;17.79;60.49
59190;BME280;50749;51.636;4.948;2022-11-21T02:02:36;100611.75;;;17.79;60.21
59190;BME280;50749;51.636;4.948;2022-11-21T02:05:06;100608.53;;;17.77;60.96
59190;BME280;50749;51.636;4.948;2022-11-21T02:07:35;100605.75;;;17.77;60.96
59190;BME280;50749;51.636;4.948;2022-11-21T02:10:05;100602.19;;;17.76;60.60
59190;BME280;50749;51.636;4.948;2022-11-21T02:12:40;100607.72;;;17.76;60.86
59190;BME280;50749;51.636;4.948;2022-11-21T02:15:08;100606.16;;;17.75;60.72
59190;BME280;50749;51.636;4.948;2022-11-21T02:17:34;100599.00;;;17.74;60.22
59190;BME280;50749;51.636;4.948;2022-11-21T02:20:05;100608.44;;;17.73;60.51
59190;BME280;50749;51.636;4.948;2022-11-21T02:25:04;100616.31;;;17.71;60.67
59190;BME280;50749;51.636;4.948;2022-11-21T02:27:30;100615.53;;;17.71;60.00
59190;BME280;50749;51.636;4.948;2022-11-21T02:29:57;100615.88;;;17.69;60.26
59190;BME280;50749;51.636;4.948;2022-11-21T02:32:25;100622.56;;;17.68;60.20
59190;BME280;50749;51.636;4.948;2022-11-21T02:34:56;100611.88;;;17.67;60.81
59190;BME280;50749;51.636;4.948;2022-11-21T02:37:22;100609.09;;;17.67;60.34
59190;BME280;50749;51.636;4.948;2022-11-21T02:39:48;100605.09;;;17.64;60.26
59190;BME280;50749;51.636;4.948;2022-11-21T02:45:11;100601.16;;;17.65;60.59
59190;BME280;50749;51.636;4.948;2022-11-21T02:47:39;100603.13;;;17.64;60.41
59190;BME280;50749;51.636;4.948;2022-11-21T02:50:22;100599.56;;;17.64;60.18
59190;BME280;50749;51.636;4.948;2022-11-21T02:52:50;100602.69;;;17.62;60.42
59190;BME280;50749;51.636;4.948;2022-11-21T02:55:16;100604.69;;;17.62;60.20
59190;BME280;50749;51.636;4.948;2022-11-21T02:57:42;100616.09;;;17.60;59.98
59190;BME280;50749;51.636;4.948;2022-11-21T03:00:09;100612.50;;;17.60;60.17
59190;BME280;50749;51.636;4.948;2022-11-21T03:02:36;100601.44;;;17.60;60.25
59190;BME280;50749;51.636;4.948;2022-11-21T03:05:03;100606.53;;;17.58;60.41
59190;BME280;50749;51.636;4.948;2022-11-21T03:07:29;100602.63;;;17.59;60.15
59190;BME280;50749;51.636;4.948;2022-11-21T03:09:55;100599.44;;;17.57;60.01
59190;BME280;50749;51.636;4.948;2022-11-21T03:12:21;100601.00;;;17.58;60.04
59190;BME280;50749;51.636;4.948;2022-11-21T03:14:47;100583.22;;;17.55;59.96
59190;BME280;50749;51.636;4.948;2022-11-21T03:17:13;100591.50;;;17.55;60.15
59190;BME280;50749;51.636;4.948;2022-11-21T03:19:39;100591.84;;;17.54;60.03
59190;BME280;50749;51.636;4.948;2022-11-21T03:22:04;100583.56;;;17.54;59.90
59190;BME280;50749;51.636;4.948;2022-11-21T03:24:30;100591.84;;;17.54;59.56
59190;BME280;50749;51.636;4.948;2022-11-21T03:26:56;100588.28;;;17.53;59.95
59190;BME280;50749;51.636;4.948;2022-11-21T03:29:22;100591.41;;;17.52;59.70
59190;BME280;50749;51.636;4.948;2022-11-21T03:31:48;100598.91;;;17.51;60.26
59190;BME280;50749;51.636;4.948;2022-11-21T03:34:14;100596.94;;;17.52;59.74
59190;BME280;50749;51.636;4.948;2022-11-21T03:36:39;100602.47;;;17.52;60.04
59190;BME280;50749;51.636;4.948;2022-11-21T03:39:05;100592.56;;;17.51;59.90
59190;BME280;50749;51.636;4.948;2022-11-21T03:41:31;100581.88;;;17.49;59.49
59190;BME280;50749;51.636;4.948;2022-11-21T03:43:59;100583.03;;;17.48;59.68
59190;BME280;50749;51.636;4.948;2022-11-21T03:46:26;100585.78;;;17.48;59.88
59190;BME280;50749;51.636;4.948;2022-11-21T03:48:52;100585.00;;;17.48;60.05
59190;BME280;50749;51.636;4.948;2022-11-21T03:51:18;100590.53;;;17.48;59.65
59190;BME280;50749;51.636;4.948;2022-11-21T03:53:44;100589.72;;;17.47;59.51
59190;BME280;50749;51.636;4.948;2022-11-21T03:56:10;100581.44;;;17.47;59.87
59190;BME280;50749;51.636;4.948;2022-11-21T03:58:36;100575.47;;;17.45;59.79
59190;BME280;50749;51.636;4.948;2022-11-21T04:01:02;100569.97;;;17.45;59.83
59190;BME280;50749;51.636;4.948;2022-11-21T04:03:28;100562.03;;;17.43;59.99
59190;BME280;50749;51.636;4.948;2022-11-21T04:05:54;100566.38;;;17.44;59.56
59190;BME280;50749;51.636;4.948;2022-11-21T04:08:20;100575.84;;;17.43;59.67
59190;BME280;50749;51.636;4.948;2022-11-21T04:10:47;100566.72;;;17.43;59.62
59190;BME280;50749;51.636;4.948;2022-11-21T04:13:13;100567.56;;;17.43;59.82
59190;BME280;50749;51.636;4.948;2022-11-21T04:15:42;100566.81;;;17.46;60.03
59190;BME280;50749;51.636;4.948;2022-11-21T04:18:08;100568.84;;;17.50;59.91
59190;BME280;50749;51.636;4.948;2022-11-21T04:20:34;100567.34;;;17.52;58.91
59190;BME280;50749;51.636;4.948;2022-11-21T04:23:01;100568.56;;;17.55;58.61
59190;BME280;50749;51.636;4.948;2022-11-21T04:25:26;100569.47;;;17.59;58.19
59190;BME280;50749;51.636;4.948;2022-11-21T04:27:57;100570.75;;;17.65;58.23
59190;BME280;50749;51.636;4.948;2022-11-21T04:30:23;100562.19;;;17.70;58.19
59190;BME280;50749;51.636;4.948;2022-11-21T04:32:55;100564.28;;;17.77;58.30
59190;BME280;50749;51.636;4.948;2022-11-21T04:35:22;100574.25;;;17.81;58.60
59190;BME280;50749;51.636;4.948;2022-11-21T04:37:49;100579.53;;;17.87;58.24
59190;BME280;50749;51.636;4.948;2022-11-21T04:40:15;100570.16;;;17.91;58.50
59190;BME280;50749;51.636;4.948;2022-11-21T04:42:45;100567.09;;;17.96;58.31
59190;BME280;50749;51.636;4.948;2022-11-21T04:45:13;100565.56;;;17.99;58.65
59190;BME280;50749;51.636;4.948;2022-11-21T04:47:41;100552.97;;;18.01;58.59
59190;BME280;50749;51.636;4.948;2022-11-21T04:50:08;100548.69;;;18.04;58.41
59190;BME280;50749;51.636;4.948;2022-11-21T04:52:35;100541.97;;;18.05;58.82
59190;BME280;50749;51.636;4.948;2022-11-21T04:55:01;100545.19;;;18.07;58.52
59190;BME280;50749;51.636;4.948;2022-11-21T04:57:27;100549.53;;;18.08;58.65
59190;BME280;50749;51.636;4.948;2022-11-21T04:59:54;100535.72;;;18.08;58.11
59190;BME280;50749;51.636;4.948;2022-11-21T05:02:20;100528.66;;;18.11;58.14
59190;BME280;50749;51.636;4.948;2022-11-21T05:04:46;100528.59;;;18.07;57.48
59190;BME280;50749;51.636;4.948;2022-11-21T05:07:13;100518.91;;;17.97;55.10
59190;BME280;50749;51.636;4.948;2022-11-21T05:09:38;100522.72;;;17.89;55.09
59190;BME280;50749;51.636;4.948;2022-11-21T05:12:05;100521.00;;;17.85;54.96
59190;BME280;50749;51.636;4.948;2022-11-21T05:14:49;100528.44;;;17.80;55.37
59190;BME280;50749;51.636;4.948;2022-11-21T05:17:15;100518.91;;;17.78;55.04
59190;BME280;50749;51.636;4.948;2022-11-21T05:19:41;100509.81;;;17.77;55.37
59190;BME280;50749;51.636;4.948;2022-11-21T05:22:07;100518.09;;;17.77;55.42
59190;BME280;50749;51.636;4.948;2022-11-21T05:24:32;100512.63;;;17.81;56.26
59190;BME280;50749;51.636;4.948;2022-11-21T05:26:58;100509.56;;;17.86;56.84
59190;BME280;50749;51.636;4.948;2022-11-21T05:29:24;100497.28;;;17.83;55.33
59190;BME280;50749;51.636;4.948;2022-11-21T05:31:50;100494.13;;;17.85;56.10
59190;BME280;50749;51.636;4.948;2022-11-21T05:34:16;100492.66;;;17.88;55.76
59190;BME280;50749;51.636;4.948;2022-11-21T05:36:42;100492.66;;;17.88;56.10
59190;BME280;50749;51.636;4.948;2022-11-21T05:39:07;100488.72;;;17.89;55.68
59190;BME280;50749;51.636;4.948;2022-11-21T05:41:33;100479.25;;;17.90;55.61
59190;BME280;50749;51.636;4.948;2022-11-21T05:43:59;100479.31;;;17.93;55.83
59190;BME280;50749;51.636;4.948;2022-11-21T05:46:25;100482.97;;;17.97;56.87
59190;BME280;50749;51.636;4.948;2022-11-21T05:48:52;100477.06;;;17.99;56.88
59190;BME280;50749;51.636;4.948;2022-11-21T05:51:19;100482.59;;;17.99;56.91
59190;BME280;50749;51.636;4.948;2022-11-21T05:53:46;100485.00;;;18.00;55.59
59190;BME280;50749;51.636;4.948;2022-11-21T05:56:15;100478.66;;;18.00;57.12
59190;BME280;50749;51.636;4.948;2022-11-21T05:58:41;100467.22;;;18.01;57.12
59190;BME280;50749;51.636;4.948;2022-11-21T06:01:09;100463.00;;;18.08;55.32
59190;BME280;50749;51.636;4.948;2022-11-21T06:03:37;100463.47;;;18.13;55.47
59190;BME280;50749;51.636;4.948;2022-11-21T06:06:14;100470.31;;;18.19;55.84
59190;BME280;50749;51.636;4.948;2022-11-21T06:08:45;100470.00;;;18.25;55.61
59190;BME280;50749;51.636;4.948;2022-11-21T06:11:13;100461.03;;;18.31;55.88
59190;BME280;50749;51.636;4.948;2022-11-21T06:13:39;100452.78;;;18.35;55.82
59190;BME280;50749;51.636;4.948;2022-11-21T06:16:08;100455.59;;;18.38;56.02
59190;BME280;50749;51.636;4.948;2022-11-21T06:18:36;100457.25;;;18.43;56.12
59190;BME280;50749;51.636;4.948;2022-11-21T06:21:04;100449.81;;;18.47;56.11
59190;BME280;50749;51.636;4.948;2022-11-21T06:23:30;100455.78;;;18.49;56.51
59190;BME280;50749;51.636;4.948;2022-11-21T06:25:58;100456.22;;;18.51;56.05
59190;BME280;50749;51.636;4.948;2022-11-21T06:28:25;100448.69;;;18.52;56.15
59190;BME280;50749;51.636;4.948;2022-11-21T06:30:51;100450.31;;;18.53;56.41
59190;BME280;50749;51.636;4.948;2022-11-21T06:33:17;100448.75;;;18.55;56.23
59190;BME280;50749;51.636;4.948;2022-11-21T06:35:44;100442.06;;;18.56;56.53
59190;BME280;50749;51.636;4.948;2022-11-21T06:38:10;100445.94;;;18.52;56.69
59190;BME280;50749;51.636;4.948;2022-11-21T06:40:39;100448.28;;;18.50;56.42
59190;BME280;50749;51.636;4.948;2022-11-21T06:43:04;100439.91;;;18.46;56.29
59190;BME280;50749;51.636;4.948;2022-11-21T06:45:30;100435.13;;;18.43;56.10
59190;BME280;50749;51.636;4.948;2022-11-21T06:47:56;100433.50;;;18.42;55.23
59190;BME280;50749;51.636;4.948;2022-11-21T06:50:22;100423.19;;;18.39;56.41
59190;BME280;50749;51.636;4.948;2022-11-21T06:52:47;100431.78;;;18.34;56.22
59190;BME280;50749;51.636;4.948;2022-11-21T06:55:14;100436.50;;;18.30;56.51
59190;BME280;50749;51.636;4.948;2022-11-21T06:57:42;100416.66;;;18.24;56.96
59190;BME280;50749;51.636;4.948;2022-11-21T07:00:08;100415.88;;;18.27;56.63
59190;BME280;50749;51.636;4.948;2022-11-21T07:02:34;100418.22;;;18.25;56.82
59190;BME280;50749;51.636;4.948;2022-11-21T07:05:00;100428.88;;;18.23;57.04
59190;BME280;50749;51.636;4.948;2022-11-21T07:07:25;100424.56;;;18.26;56.40
59190;BME280;50749;51.636;4.948;2022-11-21T07:09:51;100424.56;;;18.26;56.89
59190;BME280;50749;51.636;4.948;2022-11-21T07:12:17;100423.75;;;18.25;56.45
59190;BME280;50749;51.636;4.948;2022-11-21T07:15:01;100413.50;;;18.26;56.52
59190;BME280;50749;51.636;4.948;2022-11-21T07:17:28;100419.03;;;18.26;56.08
59190;BME280;50749;51.636;4.948;2022-11-21T07:19:54;100415.56;;;18.32;55.12
59190;BME280;50749;51.636;4.948;2022-11-21T07:22:20;100420.81;;;18.37;55.47
59190;BME280;50749;51.636;4.948;2022-11-21T07:24:45;100420.88;;;18.41;55.54
59190;BME280;50749;51.636;4.948;2022-11-21T07:27:11;100426.81;;;18.43;56.10
59190;BME280;50749;51.636;4.948;2022-11-21T07:29:37;100422.50;;;18.46;55.96
59190;BME280;50749;51.636;4.948;2022-11-21T07:32:04;100426.88;;;18.47;56.55
59190;BME280;50749;51.636;4.948;2022-11-21T07:34:30;100430.44;;;18.47;56.18
59190;BME280;50749;51.636;4.948;2022-11-21T07:36:56;100434.03;;;18.48;55.22
59190;BME280;50749;51.636;4.948;2022-11-21T07:39:22;100433.56;;;18.46;54.96
59190;BME280;50749;51.636;4.948;2022-11-21T07:41:47;100436.28;;;18.42;54.87
59190;BME280;50749;51.636;4.948;2022-11-21T07:44:13;100423.25;;;18.43;54.84
59190;BME280;50749;51.636;4.948;2022-11-21T07:46:39;100426.03;;;18.43;55.56
59190;BME280;50749;51.636;4.948;2022-11-21T07:49:05;100414.16;;;18.42;56.18
59190;BME280;50749;51.636;4.948;2022-11-21T07:51:30;100405.84;;;18.42;55.77
59190;BME280;50749;51.636;4.948;2022-11-21T07:53:56;100407.81;;;18.42;56.05
59190;BME280;50749;51.636;4.948;2022-11-21T07:56:22;100408.19;;;18.40;56.04
59190;BME280;50749;51.636;4.948;2022-11-21T07:58:51;100412.13;;;18.39;55.74
59190;BME280;50749;51.636;4.948;2022-11-21T08:01:17;100408.91;;;18.37;56.11
59190;BME280;50749;51.636;4.948;2022-11-21T08:03:43;100402.59;;;18.36;55.89
59190;BME280;50749;51.636;4.948;2022-11-21T08:06:11;100410.13;;;18.36;56.05
59190;BME280;50749;51.636;4.948;2022-11-21T08:08:37;100406.91;;;18.34;55.97
59190;BME280;50749;51.636;4.948;2022-11-21T08:11:05;100401.34;;;18.34;55.91
59190;BME280;50749;51.636;4.948;2022-11-21T08:13:32;100390.66;;;18.32;55.97
59190;BME280;50749;51.636;4.948;2022-11-21T08:16:00;100384.34;;;18.32;56.05
59190;BME280;50749;51.636;4.948;2022-11-21T08:18:26;100387.09;;;18.32;56.33
59190;BME280;50749;51.636;4.948;2022-11-21T08:20:52;100385.53;;;18.31;56.00
59190;BME280;50749;51.636;4.948;2022-11-21T08:23:18;100375.63;;;18.30;56.00
59190;BME280;50749;51.636;4.948;2022-11-21T08:25:44;100375.63;;;18.30;55.77
59190;BME280;50749;51.636;4.948;2022-11-21T08:28:10;100368.84;;;18.27;55.61
59190;BME280;50749;51.636;4.948;2022-11-21T08:30:37;100359.34;;;18.25;55.84
59190;BME280;50749;51.636;4.948;2022-11-21T08:33:04;100363.25;;;18.24;55.73
59190;BME280;50749;51.636;4.948;2022-11-21T08:35:31;100365.22;;;18.23;55.81
59190;BME280;50749;51.636;4.948;2022-11-21T08:37:58;100368.38;;;18.22;55.71
59190;BME280;50749;51.636;4.948;2022-11-21T08:40:25;100359.28;;;18.21;55.86
59190;BME280;50749;51.636;4.948;2022-11-21T08:42:59;100365.97;;;18.20;55.69
59190;BME280;50749;51.636;4.948;2022-11-21T08:45:25;100358.41;;;18.17;55.38
59190;BME280;50749;51.636;4.948;2022-11-21T08:47:53;100363.16;;;18.16;55.84
59190;BME280;50749;51.636;4.948;2022-11-21T08:50:19;100351.66;;;18.14;55.77
59190;BME280;50749;51.636;4.948;2022-11-21T08:52:47;100350.06;;;18.13;55.80
59190;BME280;50749;51.636;4.948;2022-11-21T08:55:13;100349.63;;;18.11;55.36
59190;BME280;50749;51.636;4.948;2022-11-21T08:57:41;100346.88;;;18.11;55.72
59190;BME280;50749;51.636;4.948;2022-11-21T09:00:08;100340.56;;;18.11;55.48
59190;BME280;50749;51.636;4.948;2022-11-21T09:02:35;100329.84;;;18.09;55.37
59190;BME280;50749;51.636;4.948;2022-11-21T09:05:01;100330.22;;;18.08;55.33
59190;BME280;50749;51.636;4.948;2022-11-21T09:07:27;100332.19;;;18.07;55.80
59190;BME280;50749;51.636;4.948;2022-11-21T09:09:52;100322.28;;;18.06;55.59
59190;BME280;50749;51.636;4.948;2022-11-21T09:12:18;100328.97;;;18.05;55.34
59190;BME280;50749;51.636;4.948;2022-11-21T09:14:44;100326.22;;;18.05;55.63
59190;BME280;50749;51.636;4.948;2022-11-21T09:17:29;100324.63;;;18.04;55.65
59190;BME280;50749;51.636;4.948;2022-11-21T09:20:13;100331.31;;;18.03;55.36
59190;BME280;50749;51.636;4.948;2022-11-21T09:22:39;100331.69;;;18.01;55.73
59190;BME280;50749;51.636;4.948;2022-11-21T09:25:05;100321.41;;;18.02;55.55
59190;BME280;50749;51.636;4.948;2022-11-21T09:27:31;100319.06;;;18.00;55.53
59190;BME280;50749;51.636;4.948;2022-11-21T09:29:57;100315.47;;;18.00;55.76
59190;BME280;50749;51.636;4.948;2022-11-21T09:32:23;100312.72;;;18.00;55.51
59190;BME280;50749;51.636;4.948;2022-11-21T09:34:50;100311.91;;;17.99;55.59
59190;BME280;50749;51.636;4.948;2022-11-21T09:37:17;100311.13;;;17.99;55.42
59190;BME280;50749;51.636;4.948;2022-11-21T09:39:42;100301.22;;;17.98;55.33
59190;BME280;50749;51.636;4.948;2022-11-21T09:47:26;100297.28;;;17.99;55.35
59190;BME280;50749;51.636;4.948;2022-11-21T09:53:13;100289.78;;;17.99;55.31
59190;BME280;50749;51.636;4.948;2022-11-21T09:58:05;100293.72;;;17.98;55.25
59190;BME280;50749;51.636;4.948;2022-11-21T10:00:34;100294.53;;;17.99;55.61
59190;BME280;50749;51.636;4.948;2022-11-21T10:03:00;100295.31;;;17.99;55.59
59190;BME280;50749;51.636;4.948;2022-11-21T10:05:37;100296.09;;;18.00;55.57
59190;BME280;50749;51.636;4.948;2022-11-21T10:13:52;100268.44;;;18.00;55.36
59190;BME280;50749;51.636;4.948;2022-11-21T10:16:47;100255.00;;;17.98;55.57
59190;BME280;50749;51.636;4.948;2022-11-21T10:22:43;100260.97;;;18.00;55.19
59190;BME280;50749;51.636;4.948;2022-11-21T10:25:22;100253.03;;;17.99;55.15
59190;BME280;50749;51.636;4.948;2022-11-21T10:27:54;100248.69;;;17.98;55.60
59190;BME280;50749;51.636;4.948;2022-11-21T10:30:21;100244.31;;;17.97;55.15
59190;BME280;50749;51.636;4.948;2022-11-21T10:32:56;100240.75;;;17.96;55.12
59190;BME280;50749;51.636;4.948;2022-11-21T10:35:37;100246.28;;;17.96;54.88
59190;BME280;50749;51.636;4.948;2022-11-21T10:38:21;100240.75;;;17.96;55.38
59190;BME280;50749;51.636;4.948;2022-11-21T10:41:04;100235.97;;;17.93;54.84
59190;BME280;50749;51.636;4.948;2022-11-21T10:46:22;100229.28;;;17.94;55.03
59190;BME280;50749;51.636;4.948;2022-11-21T10:48:56;100216.22;;;17.95;55.21
59190;BME280;50749;51.636;4.948;2022-11-21T10:54:07;100217.03;;;17.95;55.25
59190;BME280;50749;51.636;4.948;2022-11-21T10:56:53;100214.66;;;17.94;55.32
59190;BME280;50749;51.636;4.948;2022-11-21T10:59:24;100209.91;;;17.94;55.38
59190;BME280;50749;51.636;4.948;2022-11-21T11:01:57;100200.81;;;17.94;54.95
59190;BME280;50749;51.636;4.948;2022-11-21T11:04:26;100200.00;;;17.93;55.32
59190;BME280;50749;51.636;4.948;2022-11-21T11:06:53;100198.06;;;17.94;55.13
59190;BME280;50749;51.636;4.948;2022-11-21T11:09:32;100190.94;;;17.93;55.11
59190;BME280;50749;51.636;4.948;2022-11-21T11:12:27;100187.75;;;17.91;54.67
59190;BME280;50749;51.636;4.948;2022-11-21T11:15:22;100180.22;;;17.91;54.87
59190;BME280;50749;51.636;4.948;2022-11-21T11:17:50;100173.91;;;17.91;55.28
59190;BME280;50749;51.636;4.948;2022-11-21T11:22:55;100155.72;;;17.90;55.22
59190;BME280;50749;51.636;4.948;2022-11-21T11:25:20;100152.94;;;17.90;55.20
59190;BME280;50749;51.636;4.948;2022-11-21T11:27:48;100148.63;;;17.89;55.02
59190;BME280;50749;51.636;4.948;2022-11-21T11:30:16;100133.97;;;17.88;54.99
59190;BME280;50749;51.636;4.948;2022-11-21T11:32:42;100130.41;;;17.88;54.82
59190;BME280;50749;51.636;4.948;2022-11-21T11:35:15;100127.66;;;17.88;55.11
59190;BME280;50749;51.636;4.948;2022-11-21T11:38:10;100119.69;;;17.86;55.07
59190;BME280;50749;51.636;4.948;2022-11-21T11:40:40;100116.16;;;17.86;54.89
59190;BME280;50749;51.636;4.948;2022-11-21T11:51:54;100080.94;;;17.82;54.99
59190;BME280;50749;51.636;4.948;2022-11-21T11:54:39;100088.88;;;17.84;54.96
59190;BME280;50749;51.636;4.948;2022-11-21T11:57:08;100070.69;;;17.83;55.10
59190;BME280;50749;51.636;4.948;2022-11-21T11:59:46;100068.69;;;17.83;55.07
59190;BME280;50749;51.636;4.948;2022-11-21T12:02:20;100062.75;;;17.81;54.94
59190;BME280;50749;51.636;4.948;2022-11-21T12:04:54;100057.22;;;17.81;55.07
59190;BME280;50749;51.636;4.948;2022-11-21T12:07:40;100054.84;;;17.80;54.80
59190;BME280;50749;51.636;4.948;2022-11-21T12:10:40;100045.34;;;17.77;54.37
59190;BME280;50749;51.636;4.948;2022-11-21T12:13:30;100031.03;;;17.72;53.55
59190;BME280;50749;51.636;4.948;2022-11-21T12:16:02;100025.47;;;17.68;53.48
59190;BME280;50749;51.636;4.948;2022-11-21T12:18:37;100022.66;;;17.64;53.19
59190;BME280;50749;51.636;4.948;2022-11-21T12:21:12;100011.22;;;17.66;54.45
59190;BME280;50749;51.636;4.948;2022-11-21T12:32:15;99990.81;;;17.74;54.60
59190;BME280;50749;51.636;4.948;2022-11-21T12:45:35;99961.22;;;17.78;54.75
59190;BME280;50749;51.636;4.948;2022-11-21T12:48:16;99945.84;;;17.81;54.72
59190;BME280;50749;51.636;4.948;2022-11-21T12:54:33;99934.09;;;17.88;54.88
59190;BME280;50749;51.636;4.948;2022-11-21T12:57:09;99907.28;;;17.92;55.38
59190;BME280;50749;51.636;4.948;2022-11-21T13:03:48;99888.44;;;18.05;54.95
59190;BME280;50749;51.636;4.948;2022-11-21T13:05:45;99906.66;;;18.09;54.32
59190;BME280;50749;51.636;4.948;2022-11-21T13:08:20;99897.19;;;18.14;54.55
59190;BME280;50749;51.636;4.948;2022-11-21T13:14:08;99883.81;;;18.19;54.57
59190;BME280;50749;51.636;4.948;2022-11-21T13:16:40;99889.38;;;18.23;54.79
59190;BME280;50749;51.636;4.948;2022-11-21T13:19:33;99878.34;;;18.27;54.83
59190;BME280;50749;51.636;4.948;2022-11-21T13:22:00;99874.41;;;18.28;55.09
59190;BME280;50749;51.636;4.948;2022-11-21T13:27:40;99869.69;;;18.32;54.76
59190;BME280;50749;51.636;4.948;2022-11-21T13:32:58;99853.09;;;18.32;54.94
59190;BME280;50749;51.636;4.948;2022-11-21T13:38:01;99850.72;;;18.34;55.23
59190;BME280;50749;51.636;4.948;2022-11-21T13:45:45;99829.41;;;18.38;54.48
59190;BME280;50749;51.636;4.948;2022-11-21T14:08:26;99801.00;;;18.48;54.50
59190;BME280;50749;51.636;4.948;2022-11-21T14:10:54;99791.53;;;18.49;54.61
59190;BME280;50749;51.636;4.948;2022-11-21T14:13:46;99787.56;;;18.50;54.61
59190;BME280;50749;51.636;4.948;2022-11-21T14:16:31;99784.44;;;18.52;55.00
59190;BME280;50749;51.636;4.948;2022-11-21T14:19:02;99776.50;;;18.50;54.90
59190;BME280;50749;51.636;4.948;2022-11-21T14:21:31;99776.13;;;18.52;55.15
59190;BME280;50749;51.636;4.948;2022-11-21T14:24:00;99768.59;;;18.52;55.07
59190;BME280;50749;51.636;4.948;2022-11-21T14:26:37;99755.19;;;18.54;55.02
59190;BME280;50749;51.636;4.948;2022-11-21T14:29:25;99749.66;;;18.54;54.57
59190;BME280;50749;51.636;4.948;2022-11-21T14:31:52;99744.91;;;18.55;54.95
59190;BME280;50749;51.636;4.948;2022-11-21T14:34:25;99745.69;;;18.55;55.21
59190;BME280;50749;51.636;4.948;2022-11-21T14:36:52;99744.13;;;18.54;54.84
59190;BME280;50749;51.636;4.948;2022-11-21T14:39:19;99744.91;;;18.55;54.86
59190;BME280;50749;51.636;4.948;2022-11-21T14:41:50;99731.84;;;18.55;55.39
59190;BME280;50749;51.636;4.948;2022-11-21T14:44:18;99726.31;;;18.55;55.01
59190;BME280;50749;51.636;4.948;2022-11-21T14:46:46;99713.69;;;18.54;54.71